sensor_id;sensor_type;location;lat;lon;timestamp;P1;durP1;ratioP1;P2;durP2;ratioP2
21647;SDS011;10985;54.182;7.890;2023-06-19T00:02:14;11.60;;;9.30;;
21647;SDS011;10985;54.182;7.890;2023-06-19T00:04:39;12.10;;;9.77;;
21647;SDS011;10985;54.182;7.890;2023-06-19T00:07:05;13.13;;;10.10;;
21647;SDS011;10985;54.182;7.890;2023-06-19T00:09:31;13.60;;;10.80;;
21647;SDS011;10985;54.182;7.890;2023-06-19T00:11:57;14.63;;;10.75;;
21647;SDS011;10985;54.182;7.890;2023-06-19T00:14:24;15.20;;;11.07;;
21647;SDS011;10985;54.182;7.890;2023-06-19T00:16:50;15.95;;;10.57;;
21647;SDS011;10985;54.182;7.890;2023-06-19T00:19:16;13.95;;;11.02;;
21647;SDS011;10985;54.182;7.890;2023-06-19T00:21:42;14.23;;;11.38;;
21647;SDS011;10985;54.182;7.890;2023-06-19T00:24:08;12.02;;;10.43;;
21647;SDS011;10985;54.182;7.890;2023-06-19T00:26:34;14.68;;;11.50;;
21647;SDS011;10985;54.182;7.890;2023-06-19T00:28:59;12.32;;;10.50;;
21647;SDS011;10985;54.182;7.890;2023-06-19T00:31:25;15.35;;;11.40;;
21647;SDS011;10985;54.182;7.890;2023-06-19T00:33:52;14.40;;;11.65;;
21647;SDS011;10985;54.182;7.890;2023-06-19T00:36:18;18.52;;;11.93;;
21647;SDS011;10985;54.182;7.890;2023-06-19T00:38:45;16.52;;;12.77;;
21647;SDS011;10985;54.182;7.890;2023-06-19T00:41:11;18.73;;;11.18;;
21647;SDS011;10985;54.182;7.890;2023-06-19T00:43:37;13.25;;;11.52;;
21647;SDS011;10985;54.182;7.890;2023-06-19T00:46:03;15.98;;;12.27;;
21647;SDS011;10985;54.182;7.890;2023-06-19T00:48:29;16.10;;;11.23;;
21647;SDS011;10985;54.182;7.890;2023-06-19T00:50:57;16.67;;;12.38;;
21647;SDS011;10985;54.182;7.890;2023-06-19T00:53:23;16.23;;;11.27;;
21647;SDS011;10985;54.182;7.890;2023-06-19T00:55:49;15.38;;;12.18;;
21647;SDS011;10985;54.182;7.890;2023-06-19T00:58:16;18.90;;;12.18;;
21647;SDS011;10985;54.182;7.890;2023-06-19T01:00:43;13.73;;;11.57;;
21647;SDS011;10985;54.182;7.890;2023-06-19T01:03:08;19.13;;;12.18;;
21647;SDS011;10985;54.182;7.890;2023-06-19T01:05:34;14.20;;;11.57;;
21647;SDS011;10985;54.182;7.890;2023-06-19T01:08:04;14.20;;;12.38;;
21647;SDS011;10985;54.182;7.890;2023-06-19T01:10:39;17.80;;;12.00;;
21647;SDS011;10985;54.182;7.890;2023-06-19T01:13:10;13.98;;;11.60;;
21647;SDS011;10985;54.182;7.890;2023-06-19T01:15:41;15.27;;;11.55;;
21647;SDS011;10985;54.182;7.890;2023-06-19T01:18:07;20.85;;;12.52;;
21647;SDS011;10985;54.182;7.890;2023-06-19T01:20:37;16.13;;;12.32;;
21647;SDS011;10985;54.182;7.890;2023-06-19T01:23:09;18.20;;;12.45;;
21647;SDS011;10985;54.182;7.890;2023-06-19T01:25:36;16.33;;;12.10;;
21647;SDS011;10985;54.182;7.890;2023-06-19T01:28:02;18.98;;;11.63;;
21647;SDS011;10985;54.182;7.890;2023-06-19T01:30:30;16.23;;;12.40;;
21647;SDS011;10985;54.182;7.890;2023-06-19T01:32:58;20.80;;;12.00;;
21647;SDS011;10985;54.182;7.890;2023-06-19T01:35:29;14.70;;;12.30;;
21647;SDS011;10985;54.182;7.890;2023-06-19T01:37:57;12.85;;;11.27;;
21647;SDS011;10985;54.182;7.890;2023-06-19T01:40:24;15.00;;;12.50;;
21647;SDS011;10985;54.182;7.890;2023-06-19T01:42:52;21.80;;;13.93;;
21647;SDS011;10985;54.182;7.890;2023-06-19T01:45:19;18.98;;;12.60;;
21647;SDS011;10985;54.182;7.890;2023-06-19T01:47:45;16.58;;;12.13;;
21647;SDS011;10985;54.182;7.890;2023-06-19T01:50:11;19.35;;;12.77;;
21647;SDS011;10985;54.182;7.890;2023-06-19T01:52:37;17.23;;;12.57;;
21647;SDS011;10985;54.182;7.890;2023-06-19T01:55:03;16.25;;;12.10;;
21647;SDS011;10985;54.182;7.890;2023-06-19T01:57:29;22.67;;;13.32;;
21647;SDS011;10985;54.182;7.890;2023-06-19T01:59:56;20.40;;;12.98;;
21647;SDS011;10985;54.182;7.890;2023-06-19T02:02:21;19.42;;;12.57;;
21647;SDS011;10985;54.182;7.890;2023-06-19T02:04:47;15.80;;;12.15;;
21647;SDS011;10985;54.182;7.890;2023-06-19T02:07:12;21.10;;;13.18;;
21647;SDS011;10985;54.182;7.890;2023-06-19T02:09:38;14.30;;;11.75;;
21647;SDS011;10985;54.182;7.890;2023-06-19T02:12:04;23.05;;;12.25;;
21647;SDS011;10985;54.182;7.890;2023-06-19T02:14:30;15.88;;;12.80;;
21647;SDS011;10985;54.182;7.890;2023-06-19T02:16:55;14.60;;;12.93;;
21647;SDS011;10985;54.182;7.890;2023-06-19T02:19:21;19.92;;;12.93;;
21647;SDS011;10985;54.182;7.890;2023-06-19T02:21:46;21.27;;;13.32;;
21647;SDS011;10985;54.182;7.890;2023-06-19T02:24:12;15.25;;;12.88;;
21647;SDS011;10985;54.182;7.890;2023-06-19T02:26:37;16.95;;;12.65;;
21647;SDS011;10985;54.182;7.890;2023-06-19T02:29:03;15.63;;;12.18;;
21647;SDS011;10985;54.182;7.890;2023-06-19T02:31:28;16.92;;;12.77;;
21647;SDS011;10985;54.182;7.890;2023-06-19T02:33:54;17.48;;;12.10;;
21647;SDS011;10985;54.182;7.890;2023-06-19T02:36:19;16.60;;;12.13;;
21647;SDS011;10985;54.182;7.890;2023-06-19T02:38:48;16.00;;;12.45;;
21647;SDS011;10985;54.182;7.890;2023-06-19T02:41:14;14.93;;;12.13;;
21647;SDS011;10985;54.182;7.890;2023-06-19T02:43:40;16.85;;;11.95;;
21647;SDS011;10985;54.182;7.890;2023-06-19T02:46:07;16.92;;;12.20;;
21647;SDS011;10985;54.182;7.890;2023-06-19T02:48:33;19.98;;;11.65;;
21647;SDS011;10985;54.182;7.890;2023-06-19T02:50:59;17.92;;;10.52;;
21647;SDS011;10985;54.182;7.890;2023-06-19T02:53:24;18.75;;;11.65;;
21647;SDS011;10985;54.182;7.890;2023-06-19T02:55:50;17.45;;;11.10;;
21647;SDS011;10985;54.182;7.890;2023-06-19T02:58:16;19.02;;;11.32;;
21647;SDS011;10985;54.182;7.890;2023-06-19T03:00:41;18.15;;;11.75;;
21647;SDS011;10985;54.182;7.890;2023-06-19T03:03:07;18.42;;;12.30;;
21647;SDS011;10985;54.182;7.890;2023-06-19T03:05:32;18.02;;;11.88;;
21647;SDS011;10985;54.182;7.890;2023-06-19T03:07:58;13.98;;;11.45;;
21647;SDS011;10985;54.182;7.890;2023-06-19T03:10:23;23.23;;;11.98;;
21647;SDS011;10985;54.182;7.890;2023-06-19T03:12:49;20.25;;;12.00;;
21647;SDS011;10985;54.182;7.890;2023-06-19T03:15:14;15.20;;;11.65;;
21647;SDS011;10985;54.182;7.890;2023-06-19T03:17:40;16.98;;;11.15;;
21647;SDS011;10985;54.182;7.890;2023-06-19T03:20:06;16.45;;;11.13;;
21647;SDS011;10985;54.182;7.890;2023-06-19T03:22:34;14.95;;;10.73;;
21647;SDS011;10985;54.182;7.890;2023-06-19T03:24:59;22.05;;;11.32;;
21647;SDS011;10985;54.182;7.890;2023-06-19T03:27:25;15.77;;;11.30;;
21647;SDS011;10985;54.182;7.890;2023-06-19T03:29:52;16.15;;;10.10;;
21647;SDS011;10985;54.182;7.890;2023-06-19T03:32:18;17.75;;;10.82;;
21647;SDS011;10985;54.182;7.890;2023-06-19T03:34:44;19.30;;;11.27;;
21647;SDS011;10985;54.182;7.890;2023-06-19T03:37:10;18.80;;;10.52;;
21647;SDS011;10985;54.182;7.890;2023-06-19T03:39:37;22.10;;;10.75;;
21647;SDS011;10985;54.182;7.890;2023-06-19T03:42:03;21.40;;;11.32;;
21647;SDS011;10985;54.182;7.890;2023-06-19T03:44:28;23.73;;;12.32;;
21647;SDS011;10985;54.182;7.890;2023-06-19T03:46:54;19.52;;;11.15;;
21647;SDS011;10985;54.182;7.890;2023-06-19T03:49:19;20.63;;;11.60;;
21647;SDS011;10985;54.182;7.890;2023-06-19T03:51:45;18.50;;;11.82;;
21647;SDS011;10985;54.182;7.890;2023-06-19T03:54:10;19.92;;;12.15;;
21647;SDS011;10985;54.182;7.890;2023-06-19T03:56:36;26.23;;;12.98;;
21647;SDS011;10985;54.182;7.890;2023-06-19T03:59:02;18.83;;;11.85;;
21647;SDS011;10985;54.182;7.890;2023-06-19T04:01:28;21.70;;;11.98;;
21647;SDS011;10985;54.182;7.890;2023-06-19T04:03:53;14.63;;;12.25;;
21647;SDS011;10985;54.182;7.890;2023-06-19T04:06:19;14.20;;;12.25;;
21647;SDS011;10985;54.182;7.890;2023-06-19T04:08:44;19.35;;;12.20;;
21647;SDS011;10985;54.182;7.890;2023-06-19T04:11:10;18.55;;;12.30;;
21647;SDS011;10985;54.182;7.890;2023-06-19T04:13:35;22.02;;;11.93;;
21647;SDS011;10985;54.182;7.890;2023-06-19T04:16:01;17.30;;;12.02;;
21647;SDS011;10985;54.182;7.890;2023-06-19T04:18:26;19.13;;;11.85;;
21647;SDS011;10985;54.182;7.890;2023-06-19T04:20:53;25.15;;;12.38;;
21647;SDS011;10985;54.182;7.890;2023-06-19T04:23:18;18.92;;;12.30;;
21647;SDS011;10985;54.182;7.890;2023-06-19T04:25:44;19.38;;;11.90;;
21647;SDS011;10985;54.182;7.890;2023-06-19T04:28:09;20.90;;;11.73;;
21647;SDS011;10985;54.182;7.890;2023-06-19T04:30:35;18.75;;;12.10;;
21647;SDS011;10985;54.182;7.890;2023-06-19T04:33:00;17.63;;;12.00;;
21647;SDS011;10985;54.182;7.890;2023-06-19T04:35:26;18.83;;;11.98;;
21647;SDS011;10985;54.182;7.890;2023-06-19T04:37:52;17.52;;;12.25;;
21647;SDS011;10985;54.182;7.890;2023-06-19T04:40:18;22.55;;;11.77;;
21647;SDS011;10985;54.182;7.890;2023-06-19T04:42:43;19.17;;;12.05;;
21647;SDS011;10985;54.182;7.890;2023-06-19T04:45:09;20.27;;;12.23;;
21647;SDS011;10985;54.182;7.890;2023-06-19T04:47:35;25.52;;;12.65;;
21647;SDS011;10985;54.182;7.890;2023-06-19T04:50:01;19.63;;;12.13;;
21647;SDS011;10985;54.182;7.890;2023-06-19T04:52:26;16.58;;;10.85;;
21647;SDS011;10985;54.182;7.890;2023-06-19T04:54:52;18.65;;;11.38;;
21647;SDS011;10985;54.182;7.890;2023-06-19T04:57:17;15.70;;;11.98;;
21647;SDS011;10985;54.182;7.890;2023-06-19T04:59:43;16.88;;;11.75;;
21647;SDS011;10985;54.182;7.890;2023-06-19T05:02:09;21.35;;;11.45;;
21647;SDS011;10985;54.182;7.890;2023-06-19T05:04:35;17.50;;;11.63;;
21647;SDS011;10985;54.182;7.890;2023-06-19T05:07:01;16.42;;;11.63;;
21647;SDS011;10985;54.182;7.890;2023-06-19T05:09:26;18.75;;;12.43;;
21647;SDS011;10985;54.182;7.890;2023-06-19T05:11:52;17.88;;;11.05;;
21647;SDS011;10985;54.182;7.890;2023-06-19T05:14:17;14.98;;;12.00;;
21647;SDS011;10985;54.182;7.890;2023-06-19T05:16:43;23.10;;;12.32;;
21647;SDS011;10985;54.182;7.890;2023-06-19T05:19:09;18.73;;;12.82;;
21647;SDS011;10985;54.182;7.890;2023-06-19T05:21:34;20.73;;;12.80;;
21647;SDS011;10985;54.182;7.890;2023-06-19T05:24:00;18.58;;;13.45;;
21647;SDS011;10985;54.182;7.890;2023-06-19T05:26:26;21.08;;;13.57;;
21647;SDS011;10985;54.182;7.890;2023-06-19T05:28:51;31.98;;;14.40;;
21647;SDS011;10985;54.182;7.890;2023-06-19T05:31:17;32.45;;;13.95;;
21647;SDS011;10985;54.182;7.890;2023-06-19T05:33:43;30.88;;;14.27;;
21647;SDS011;10985;54.182;7.890;2023-06-19T05:36:09;37.17;;;16.83;;
21647;SDS011;10985;54.182;7.890;2023-06-19T05:38:35;28.48;;;15.85;;
21647;SDS011;10985;54.182;7.890;2023-06-19T05:41:01;36.55;;;16.15;;
21647;SDS011;10985;54.182;7.890;2023-06-19T05:43:27;24.58;;;15.27;;
21647;SDS011;10985;54.182;7.890;2023-06-19T05:45:53;36.53;;;16.65;;
21647;SDS011;10985;54.182;7.890;2023-06-19T05:48:20;34.55;;;15.68;;
21647;SDS011;10985;54.182;7.890;2023-06-19T05:50:46;48.20;;;19.30;;
21647;SDS011;10985;54.182;7.890;2023-06-19T05:53:12;31.40;;;16.65;;
21647;SDS011;10985;54.182;7.890;2023-06-19T05:55:37;26.85;;;15.93;;
21647;SDS011;10985;54.182;7.890;2023-06-19T05:58:03;27.02;;;13.40;;
21647;SDS011;10985;54.182;7.890;2023-06-19T06:00:29;21.02;;;14.05;;
21647;SDS011;10985;54.182;7.890;2023-06-19T06:02:56;27.85;;;14.20;;
21647;SDS011;10985;54.182;7.890;2023-06-19T06:05:24;32.00;;;14.57;;
21647;SDS011;10985;54.182;7.890;2023-06-19T06:07:50;20.77;;;13.38;;
21647;SDS011;10985;54.182;7.890;2023-06-19T06:10:15;30.55;;;15.40;;
21647;SDS011;10985;54.182;7.890;2023-06-19T06:12:41;27.27;;;14.50;;
21647;SDS011;10985;54.182;7.890;2023-06-19T06:15:07;20.48;;;13.90;;
21647;SDS011;10985;54.182;7.890;2023-06-19T06:17:33;32.50;;;14.23;;
21647;SDS011;10985;54.182;7.890;2023-06-19T06:19:58;30.50;;;14.60;;
21647;SDS011;10985;54.182;7.890;2023-06-19T06:22:24;17.92;;;13.07;;
21647;SDS011;10985;54.182;7.890;2023-06-19T06:24:49;27.00;;;13.70;;
21647;SDS011;10985;54.182;7.890;2023-06-19T06:27:15;28.23;;;14.13;;
21647;SDS011;10985;54.182;7.890;2023-06-19T06:29:41;26.25;;;13.98;;
21647;SDS011;10985;54.182;7.890;2023-06-19T06:32:07;23.00;;;14.00;;
21647;SDS011;10985;54.182;7.890;2023-06-19T06:34:33;24.67;;;12.90;;
21647;SDS011;10985;54.182;7.890;2023-06-19T06:36:59;23.85;;;13.77;;
21647;SDS011;10985;54.182;7.890;2023-06-19T06:39:25;23.23;;;13.57;;
21647;SDS011;10985;54.182;7.890;2023-06-19T06:41:51;27.13;;;13.50;;
21647;SDS011;10985;54.182;7.890;2023-06-19T06:44:17;21.20;;;13.55;;
21647;SDS011;10985;54.182;7.890;2023-06-19T06:46:42;20.58;;;13.32;;
21647;SDS011;10985;54.182;7.890;2023-06-19T06:49:08;19.17;;;12.90;;
21647;SDS011;10985;54.182;7.890;2023-06-19T06:51:33;20.63;;;12.85;;
21647;SDS011;10985;54.182;7.890;2023-06-19T06:53:59;23.45;;;13.85;;
21647;SDS011;10985;54.182;7.890;2023-06-19T06:56:24;26.65;;;13.18;;
21647;SDS011;10985;54.182;7.890;2023-06-19T06:58:50;24.05;;;13.70;;
21647;SDS011;10985;54.182;7.890;2023-06-19T07:01:15;25.83;;;14.88;;
21647;SDS011;10985;54.182;7.890;2023-06-19T07:03:41;19.45;;;13.20;;
21647;SDS011;10985;54.182;7.890;2023-06-19T07:06:06;21.15;;;14.23;;
21647;SDS011;10985;54.182;7.890;2023-06-19T07:08:32;21.10;;;13.63;;
21647;SDS011;10985;54.182;7.890;2023-06-19T07:10:57;20.25;;;13.60;;
21647;SDS011;10985;54.182;7.890;2023-06-19T07:13:23;24.55;;;13.27;;
21647;SDS011;10985;54.182;7.890;2023-06-19T07:15:49;19.33;;;13.38;;
21647;SDS011;10985;54.182;7.890;2023-06-19T07:18:14;20.35;;;13.27;;
21647;SDS011;10985;54.182;7.890;2023-06-19T07:20:40;23.40;;;13.77;;
21647;SDS011;10985;54.182;7.890;2023-06-19T07:23:05;20.13;;;13.20;;
21647;SDS011;10985;54.182;7.890;2023-06-19T07:25:31;23.35;;;13.07;;
21647;SDS011;10985;54.182;7.890;2023-06-19T07:27:58;14.35;;;12.77;;
21647;SDS011;10985;54.182;7.890;2023-06-19T07:30:25;17.23;;;13.35;;
21647;SDS011;10985;54.182;7.890;2023-06-19T07:32:50;14.80;;;13.07;;
21647;SDS011;10985;54.182;7.890;2023-06-19T07:35:16;16.52;;;12.98;;
21647;SDS011;10985;54.182;7.890;2023-06-19T07:37:42;14.20;;;12.73;;
21647;SDS011;10985;54.182;7.890;2023-06-19T07:40:07;21.25;;;13.90;;
21647;SDS011;10985;54.182;7.890;2023-06-19T07:42:33;18.40;;;14.02;;
21647;SDS011;10985;54.182;7.890;2023-06-19T07:44:59;14.68;;;13.18;;
21647;SDS011;10985;54.182;7.890;2023-06-19T07:47:25;17.23;;;13.73;;
21647;SDS011;10985;54.182;7.890;2023-06-19T07:49:51;16.58;;;13.82;;
21647;SDS011;10985;54.182;7.890;2023-06-19T07:52:17;20.05;;;14.80;;
21647;SDS011;10985;54.182;7.890;2023-06-19T07:54:53;18.42;;;13.85;;
21647;SDS011;10985;54.182;7.890;2023-06-19T07:57:23;16.85;;;13.43;;
21647;SDS011;10985;54.182;7.890;2023-06-19T07:59:49;14.73;;;13.38;;
21647;SDS011;10985;54.182;7.890;2023-06-19T08:02:16;15.77;;;14.20;;
21647;SDS011;10985;54.182;7.890;2023-06-19T08:04:42;17.73;;;13.57;;
21647;SDS011;10985;54.182;7.890;2023-06-19T08:07:08;16.48;;;14.82;;
21647;SDS011;10985;54.182;7.890;2023-06-19T08:09:34;16.30;;;14.48;;
21647;SDS011;10985;54.182;7.890;2023-06-19T08:12:00;14.43;;;13.00;;
21647;SDS011;10985;54.182;7.890;2023-06-19T08:14:26;15.18;;;13.52;;
21647;SDS011;10985;54.182;7.890;2023-06-19T08:16:51;15.00;;;13.23;;
21647;SDS011;10985;54.182;7.890;2023-06-19T08:19:17;15.63;;;13.45;;
21647;SDS011;10985;54.182;7.890;2023-06-19T08:21:42;15.68;;;13.45;;
21647;SDS011;10985;54.182;7.890;2023-06-19T08:24:08;16.52;;;12.70;;
21647;SDS011;10985;54.182;7.890;2023-06-19T08:26:33;14.75;;;13.07;;
21647;SDS011;10985;54.182;7.890;2023-06-19T08:28:59;14.30;;;12.88;;
21647;SDS011;10985;54.182;7.890;2023-06-19T08:31:24;14.10;;;12.63;;
21647;SDS011;10985;54.182;7.890;2023-06-19T08:33:55;15.05;;;13.45;;
21647;SDS011;10985;54.182;7.890;2023-06-19T08:36:21;13.45;;;12.25;;
21647;SDS011;10985;54.182;7.890;2023-06-19T08:38:47;15.68;;;12.77;;
21647;SDS011;10985;54.182;7.890;2023-06-19T08:41:15;17.30;;;13.18;;
21647;SDS011;10985;54.182;7.890;2023-06-19T08:43:43;13.63;;;12.10;;
21647;SDS011;10985;54.182;7.890;2023-06-19T08:46:10;14.73;;;13.18;;
21647;SDS011;10985;54.182;7.890;2023-06-19T08:48:37;14.07;;;12.57;;
21647;SDS011;10985;54.182;7.890;2023-06-19T08:51:04;14.02;;;12.25;;
21647;SDS011;10985;54.182;7.890;2023-06-19T08:53:43;16.38;;;13.02;;
21647;SDS011;10985;54.182;7.890;2023-06-19T08:56:15;14.13;;;12.68;;
21647;SDS011;10985;54.182;7.890;2023-06-19T08:58:40;16.33;;;13.75;;
21647;SDS011;10985;54.182;7.890;2023-06-19T09:01:06;15.18;;;13.57;;
21647;SDS011;10985;54.182;7.890;2023-06-19T09:03:32;13.88;;;12.57;;
21647;SDS011;10985;54.182;7.890;2023-06-19T09:06:02;15.55;;;13.07;;
21647;SDS011;10985;54.182;7.890;2023-06-19T09:08:29;13.77;;;12.38;;
21647;SDS011;10985;54.182;7.890;2023-06-19T09:11:01;14.40;;;12.50;;
21647;SDS011;10985;54.182;7.890;2023-06-19T09:13:28;13.18;;;11.93;;
21647;SDS011;10985;54.182;7.890;2023-06-19T09:15:58;11.02;;;10.10;;
21647;SDS011;10985;54.182;7.890;2023-06-19T09:18:26;10.45;;;9.55;;
21647;SDS011;10985;54.182;7.890;2023-06-19T09:20:53;11.40;;;9.98;;
21647;SDS011;10985;54.182;7.890;2023-06-19T09:23:19;11.43;;;10.43;;
21647;SDS011;10985;54.182;7.890;2023-06-19T09:25:46;11.50;;;10.55;;
21647;SDS011;10985;54.182;7.890;2023-06-19T09:28:16;14.70;;;12.30;;
21647;SDS011;10985;54.182;7.890;2023-06-19T09:30:53;12.57;;;11.32;;
21647;SDS011;10985;54.182;7.890;2023-06-19T09:33:26;12.77;;;11.43;;
21647;SDS011;10985;54.182;7.890;2023-06-19T09:35:56;13.20;;;10.75;;
21647;SDS011;10985;54.182;7.890;2023-06-19T09:38:31;18.63;;;11.25;;
21647;SDS011;10985;54.182;7.890;2023-06-19T09:41:06;16.00;;;10.38;;
21647;SDS011;10985;54.182;7.890;2023-06-19T09:46:09;11.63;;;10.48;;
21647;SDS011;10985;54.182;7.890;2023-06-19T09:48:36;11.35;;;10.35;;
21647;SDS011;10985;54.182;7.890;2023-06-19T09:51:20;12.05;;;10.77;;
21647;SDS011;10985;54.182;7.890;2023-06-19T09:53:55;12.95;;;11.00;;
21647;SDS011;10985;54.182;7.890;2023-06-19T09:56:23;12.93;;;11.55;;
21647;SDS011;10985;54.182;7.890;2023-06-19T09:58:51;13.18;;;11.73;;
21647;SDS011;10985;54.182;7.890;2023-06-19T10:01:19;11.85;;;10.85;;
21647;SDS011;10985;54.182;7.890;2023-06-19T10:03:45;12.23;;;11.00;;
21647;SDS011;10985;54.182;7.890;2023-06-19T10:06:15;12.82;;;11.82;;
21647;SDS011;10985;54.182;7.890;2023-06-19T10:08:42;13.75;;;12.10;;
21647;SDS011;10985;54.182;7.890;2023-06-19T10:11:12;12.32;;;11.25;;
21647;SDS011;10985;54.182;7.890;2023-06-19T10:13:40;15.50;;;13.13;;
21647;SDS011;10985;54.182;7.890;2023-06-19T10:16:21;14.40;;;13.13;;
21647;SDS011;10985;54.182;7.890;2023-06-19T10:18:48;20.05;;;15.82;;
21647;SDS011;10985;54.182;7.890;2023-06-19T10:21:15;26.27;;;18.90;;
21647;SDS011;10985;54.182;7.890;2023-06-19T10:23:41;19.05;;;17.00;;
21647;SDS011;10985;54.182;7.890;2023-06-19T10:26:07;24.67;;;20.15;;
21647;SDS011;10985;54.182;7.890;2023-06-19T10:28:33;26.90;;;21.05;;
21647;SDS011;10985;54.182;7.890;2023-06-19T10:31:00;30.05;;;22.08;;
21647;SDS011;10985;54.182;7.890;2023-06-19T10:33:31;34.85;;;22.77;;
21647;SDS011;10985;54.182;7.890;2023-06-19T10:35:59;32.72;;;24.42;;
21647;SDS011;10985;54.182;7.890;2023-06-19T10:38:26;34.80;;;25.50;;
21647;SDS011;10985;54.182;7.890;2023-06-19T10:40:52;41.70;;;26.85;;
21647;SDS011;10985;54.182;7.890;2023-06-19T10:43:21;35.90;;;25.08;;
21647;SDS011;10985;54.182;7.890;2023-06-19T10:45:49;38.42;;;27.13;;
21647;SDS011;10985;54.182;7.890;2023-06-19T10:48:19;39.83;;;27.02;;
21647;SDS011;10985;54.182;7.890;2023-06-19T10:50:46;40.33;;;29.00;;
21647;SDS011;10985;54.182;7.890;2023-06-19T10:53:22;45.08;;;31.00;;
21647;SDS011;10985;54.182;7.890;2023-06-19T10:55:48;46.40;;;31.65;;
21647;SDS011;10985;54.182;7.890;2023-06-19T10:58:20;54.33;;;32.05;;
21647;SDS011;10985;54.182;7.890;2023-06-19T11:00:46;48.63;;;29.98;;
21647;SDS011;10985;54.182;7.890;2023-06-19T11:03:11;42.70;;;30.13;;
21647;SDS011;10985;54.182;7.890;2023-06-19T11:05:37;48.15;;;30.70;;
21647;SDS011;10985;54.182;7.890;2023-06-19T11:08:09;50.38;;;29.13;;
21647;SDS011;10985;54.182;7.890;2023-06-19T11:10:34;43.15;;;27.33;;
21647;SDS011;10985;54.182;7.890;2023-06-19T11:13:00;37.13;;;25.50;;
21647;SDS011;10985;54.182;7.890;2023-06-19T11:15:32;34.20;;;22.23;;
21647;SDS011;10985;54.182;7.890;2023-06-19T11:17:59;31.33;;;20.63;;
21647;SDS011;10985;54.182;7.890;2023-06-19T11:20:26;27.60;;;19.65;;
21647;SDS011;10985;54.182;7.890;2023-06-19T11:22:55;27.92;;;18.63;;
21647;SDS011;10985;54.182;7.890;2023-06-19T11:25:22;33.10;;;18.45;;
21647;SDS011;10985;54.182;7.890;2023-06-19T11:27:47;25.27;;;17.00;;
21647;SDS011;10985;54.182;7.890;2023-06-19T11:30:17;23.52;;;17.05;;
21647;SDS011;10985;54.182;7.890;2023-06-19T11:32:45;23.15;;;17.27;;
21647;SDS011;10985;54.182;7.890;2023-06-19T11:35:13;21.83;;;16.38;;
21647;SDS011;10985;54.182;7.890;2023-06-19T11:37:41;23.83;;;17.15;;
21647;SDS011;10985;54.182;7.890;2023-06-19T11:40:08;25.65;;;17.25;;
21647;SDS011;10985;54.182;7.890;2023-06-19T11:42:46;23.15;;;15.00;;
21647;SDS011;10985;54.182;7.890;2023-06-19T11:45:12;19.83;;;14.88;;
21647;SDS011;10985;54.182;7.890;2023-06-19T11:47:38;23.35;;;14.63;;
21647;SDS011;10985;54.182;7.890;2023-06-19T11:50:04;24.73;;;15.10;;
21647;SDS011;10985;54.182;7.890;2023-06-19T11:52:30;19.45;;;13.55;;
21647;SDS011;10985;54.182;7.890;2023-06-19T11:54:56;21.48;;;13.90;;
21647;SDS011;10985;54.182;7.890;2023-06-19T11:57:21;18.38;;;12.95;;
21647;SDS011;10985;54.182;7.890;2023-06-19T11:59:47;21.02;;;13.68;;
21647;SDS011;10985;54.182;7.890;2023-06-19T12:02:13;20.90;;;13.32;;
21647;SDS011;10985;54.182;7.890;2023-06-19T12:04:38;19.80;;;14.32;;
21647;SDS011;10985;54.182;7.890;2023-06-19T12:07:04;22.10;;;13.43;;
21647;SDS011;10985;54.182;7.890;2023-06-19T12:09:30;22.17;;;14.30;;
21647;SDS011;10985;54.182;7.890;2023-06-19T12:11:56;18.95;;;13.48;;
21647;SDS011;10985;54.182;7.890;2023-06-19T12:14:22;26.67;;;15.05;;
21647;SDS011;10985;54.182;7.890;2023-06-19T12:16:49;21.33;;;14.48;;
21647;SDS011;10985;54.182;7.890;2023-06-19T12:19:15;26.23;;;15.27;;
21647;SDS011;10985;54.182;7.890;2023-06-19T12:21:41;26.60;;;15.38;;
21647;SDS011;10985;54.182;7.890;2023-06-19T12:24:06;21.55;;;15.05;;
21647;SDS011;10985;54.182;7.890;2023-06-19T12:26:32;24.85;;;14.82;;
21647;SDS011;10985;54.182;7.890;2023-06-19T12:29:04;22.63;;;15.07;;
21647;SDS011;10985;54.182;7.890;2023-06-19T12:31:32;31.67;;;16.00;;
21647;SDS011;10985;54.182;7.890;2023-06-19T12:33:58;27.45;;;15.57;;
21647;SDS011;10985;54.182;7.890;2023-06-19T12:36:24;27.27;;;17.65;;
21647;SDS011;10985;54.182;7.890;2023-06-19T12:38:52;35.05;;;16.27;;
21647;SDS011;10985;54.182;7.890;2023-06-19T12:41:18;27.10;;;16.70;;
21647;SDS011;10985;54.182;7.890;2023-06-19T12:43:47;26.25;;;16.00;;
21647;SDS011;10985;54.182;7.890;2023-06-19T12:46:13;30.27;;;16.40;;
21647;SDS011;10985;54.182;7.890;2023-06-19T12:48:39;29.15;;;14.93;;
21647;SDS011;10985;54.182;7.890;2023-06-19T12:51:05;26.85;;;15.13;;
21647;SDS011;10985;54.182;7.890;2023-06-19T12:53:31;24.80;;;15.13;;
21647;SDS011;10985;54.182;7.890;2023-06-19T12:55:57;23.80;;;15.27;;
21647;SDS011;10985;54.182;7.890;2023-06-19T12:58:23;22.05;;;13.35;;
21647;SDS011;10985;54.182;7.890;2023-06-19T13:00:49;25.27;;;14.27;;
21647;SDS011;10985;54.182;7.890;2023-06-19T13:03:14;29.77;;;13.98;;
21647;SDS011;10985;54.182;7.890;2023-06-19T13:05:40;24.40;;;13.93;;
21647;SDS011;10985;54.182;7.890;2023-06-19T13:08:05;25.23;;;13.70;;
21647;SDS011;10985;54.182;7.890;2023-06-19T13:10:31;23.65;;;13.98;;
21647;SDS011;10985;54.182;7.890;2023-06-19T13:12:56;20.40;;;13.40;;
21647;SDS011;10985;54.182;7.890;2023-06-19T13:15:24;22.27;;;13.80;;
21647;SDS011;10985;54.182;7.890;2023-06-19T13:17:50;25.38;;;13.15;;
21647;SDS011;10985;54.182;7.890;2023-06-19T13:20:16;21.42;;;13.02;;
21647;SDS011;10985;54.182;7.890;2023-06-19T13:22:41;24.52;;;13.20;;
21647;SDS011;10985;54.182;7.890;2023-06-19T13:25:07;20.40;;;12.05;;
21647;SDS011;10985;54.182;7.890;2023-06-19T13:27:33;24.45;;;12.85;;
21647;SDS011;10985;54.182;7.890;2023-06-19T13:29:59;23.98;;;13.05;;
21647;SDS011;10985;54.182;7.890;2023-06-19T13:32:25;23.17;;;12.68;;
21647;SDS011;10985;54.182;7.890;2023-06-19T13:34:51;22.33;;;12.80;;
21647;SDS011;10985;54.182;7.890;2023-06-19T13:37:17;22.58;;;11.88;;
21647;SDS011;10985;54.182;7.890;2023-06-19T13:39:43;19.17;;;11.93;;
21647;SDS011;10985;54.182;7.890;2023-06-19T13:42:09;21.40;;;12.57;;
21647;SDS011;10985;54.182;7.890;2023-06-19T13:44:35;17.77;;;12.15;;
21647;SDS011;10985;54.182;7.890;2023-06-19T13:47:01;16.15;;;11.88;;
21647;SDS011;10985;54.182;7.890;2023-06-19T13:49:27;17.50;;;11.93;;
21647;SDS011;10985;54.182;7.890;2023-06-19T13:51:52;20.45;;;11.70;;
21647;SDS011;10985;54.182;7.890;2023-06-19T13:54:18;20.20;;;11.00;;
21647;SDS011;10985;54.182;7.890;2023-06-19T13:56:45;18.42;;;10.25;;
21647;SDS011;10985;54.182;7.890;2023-06-19T13:59:12;19.60;;;10.35;;
21647;SDS011;10985;54.182;7.890;2023-06-19T14:01:37;22.05;;;10.27;;
21647;SDS011;10985;54.182;7.890;2023-06-19T14:04:03;20.20;;;11.13;;
21647;SDS011;10985;54.182;7.890;2023-06-19T14:06:28;17.05;;;10.68;;
21647;SDS011;10985;54.182;7.890;2023-06-19T14:08:55;21.13;;;10.75;;
21647;SDS011;10985;54.182;7.890;2023-06-19T14:11:20;13.85;;;10.40;;
21647;SDS011;10985;54.182;7.890;2023-06-19T14:13:46;21.75;;;10.95;;
21647;SDS011;10985;54.182;7.890;2023-06-19T14:16:11;17.33;;;11.93;;
21647;SDS011;10985;54.182;7.890;2023-06-19T14:18:37;12.45;;;9.82;;
21647;SDS011;10985;54.182;7.890;2023-06-19T14:21:02;17.10;;;11.20;;